Time;durP1;ratioP1;P1;durP2;ratioP2;P2;SDS_P1;SDS_P2;PMS_P1;PMS_P2;Temp;Humidity;BMP_temperature;BMP_pressure;BME280_temperature;BME280_humidity;BME280_pressure;Samples;Min_cycle;Max_cycle;Signal;HPM_P1;HPM_P2
2023/01/11 00:00:31;;;;;;;;;;;15.90;55.60;;;;;;5135314;27;19923;-69
2023/01/11 00:02:57;;;;;;;;;;;15.90;55.70;;;;;;5135485;27;19919;-66
2023/01/11 00:05:23;;;;;;;;;;;15.80;55.70;;;;;;5153819;27;19919;-67
2023/01/11 00:07:49;;;;;;;;;;;15.80;55.80;;;;;;5135371;27;19919;-67
2023/01/11 00:10:14;;;;;;;;;;;15.80;55.80;;;;;;5154038;27;19987;-66
2023/01/11 00:12:40;;;;;;;;;;;15.80;55.90;;;;;;5153873;27;20015;-66
2023/01/11 00:15:06;;;;;;;;;;;15.80;55.90;;;;;;5153859;27;19959;-66
2023/01/11 00:17:31;;;;;;;;;;;15.80;55.90;;;;;;5137267;27;19975;-66
2023/01/11 00:19:57;;;;;;;;;;;15.80;56.00;;;;;;5139621;27;19988;-69
2023/01/11 00:22:22;;;;;;;;;;;15.80;56.00;;;;;;5139385;27;19927;-66
2023/01/11 00:24:48;;;;;;;;;;;15.80;56.00;;;;;;5139273;27;19975;-66
2023/01/11 00:27:13;;;;;;;;;;;15.80;56.10;;;;;;5139328;27;19919;-69
2023/01/11 00:29:39;;;;;;;;;;;15.70;56.10;;;;;;5139146;27;19919;-66
2023/01/11 00:32:04;;;;;;;;;;;15.80;56.20;;;;;;5157813;27;19926;-66
2023/01/11 00:34:30;;;;;;;;;;;15.80;56.20;;;;;;5139816;27;19926;-66
2023/01/11 00:36:55;;;;;;;;;;;15.80;56.30;;;;;;5157487;27;19923;-70
2023/01/11 00:39:21;;;;;;;;;;;15.80;56.30;;;;;;5139486;27;20285;-66
2023/01/11 00:50:03;;;;;;;;;;;15.70;56.40;;;;;;5138740;27;19923;-66
2023/01/11 00:52:28;;;;;;;;;;;15.70;56.40;;;;;;5138847;27;20297;-69
2023/01/11 00:54:54;;;;;;;;;;;15.70;56.40;;;;;;5157314;27;19926;-66
2023/01/11 00:57:20;;;;;;;;;;;15.70;56.50;;;;;;5157032;27;19922;-65
2023/01/11 00:59:45;;;;;;;;;;;15.70;56.50;;;;;;5138689;27;19919;-66
2023/01/11 01:02:11;;;;;;;;;;;15.70;56.60;;;;;;5138721;27;20022;-66
2023/01/11 01:04:37;;;;;;;;;;;15.70;56.60;;;;;;5157193;27;19919;-66
2023/01/11 01:07:02;;;;;;;;;;;15.70;56.60;;;;;;5155887;27;19919;-66
2023/01/11 01:09:28;;;;;;;;;;;15.70;56.70;;;;;;5138567;27;19926;-69
2023/01/11 01:11:54;;;;;;;;;;;15.70;56.70;;;;;;5156983;27;19923;-65
2023/01/11 01:14:34;;;;;;;;;;;15.70;56.80;;;;;;5155691;27;20287;-66
2023/01/11 01:17:02;;;;;;;;;;;15.70;56.80;;;;;;5156794;27;19923;-66
2023/01/11 01:19:28;;;;;;;;;;;15.70;56.90;;;;;;5138641;27;19925;-66
2023/01/11 01:21:55;;;;;;;;;;;15.70;56.90;;;;;;5138547;27;20385;-69
2023/01/11 01:24:20;;;;;;;;;;;15.60;56.80;;;;;;5138541;27;20259;-66
2023/01/11 01:26:46;;;;;;;;;;;15.60;56.90;;;;;;5156867;27;19926;-66
2023/01/11 01:29:13;;;;;;;;;;;15.70;57.00;;;;;;5159085;27;20208;-66
2023/01/11 01:31:39;;;;;;;;;;;15.70;56.90;;;;;;5177538;27;19962;-66
2023/01/11 01:34:05;;;;;;;;;;;15.90;56.70;;;;;;5158831;27;19973;-66
2023/01/11 01:36:31;;;;;;;;;;;16.20;56.30;;;;;;5177451;27;19998;-66
2023/01/11 01:38:58;;;;;;;;;;;16.50;55.50;;;;;;5159122;27;19926;-66
2023/01/11 01:41:23;;;;;;;;;;;16.90;54.80;;;;;;5158592;27;19919;-66
2023/01/11 01:46:31;;;;;;;;;;;17.80;52.90;;;;;;5110321;27;19912;-66
2023/01/11 01:49:13;;;;;;;;;;;18.40;51.50;;;;;;5109214;28;19920;-66
2023/01/11 01:51:45;;;;;;;;;;;19.10;50.10;;;;;;5109197;28;20007;-66
2023/01/11 01:54:12;;;;;;;;;;;19.90;48.60;;;;;;5109104;28;19927;-66
2023/01/11 01:56:43;;;;;;;;;;;20.50;47.10;;;;;;5109060;28;19920;-66
2023/01/11 01:59:11;;;;;;;;;;;21.00;46.00;;;;;;5108700;28;19920;-66
2023/01/11 02:01:53;;;;;;;;;;;21.50;44.90;;;;;;5109047;28;19965;-66
2023/01/11 02:04:21;;;;;;;;;;;21.80;44.30;;;;;;5109910;28;20400;-69
2023/01/11 02:06:46;;;;;;;;;;;22.20;43.50;;;;;;5110015;28;19927;-66
2023/01/11 02:09:18;;;;;;;;;;;22.50;43.10;;;;;;5108732;28;19923;-70
2023/01/11 02:11:43;;;;;;;;;;;22.70;42.70;;;;;;5108549;28;19927;-66
2023/01/11 02:14:11;;;;;;;;;;;22.80;42.40;;;;;;5109689;28;19920;-69
2023/01/11 02:16:37;;;;;;;;;;;23.00;42.20;;;;;;5108747;28;19920;-66
2023/01/11 02:19:03;;;;;;;;;;;23.00;41.90;;;;;;5108395;28;19927;-66
2023/01/11 02:24:29;;;;;;;;;;;23.10;41.90;;;;;;5110260;27;20379;-66
2023/01/11 02:27:14;;;;;;;;;;;23.10;41.80;;;;;;5108792;28;19920;-66
2023/01/11 02:29:48;;;;;;;;;;;23.10;41.70;;;;;;5108551;28;20379;-66
2023/01/11 02:32:20;;;;;;;;;;;23.00;41.90;;;;;;5092118;28;19920;-67
2023/01/11 02:34:54;;;;;;;;;;;22.90;42.10;;;;;;5108702;28;19927;-66
2023/01/11 02:37:26;;;;;;;;;;;22.70;42.20;;;;;;5109071;28;19927;-67
2023/01/11 02:40:12;;;;;;;;;;;22.60;42.40;;;;;;5108604;28;19920;-66
2023/01/11 02:50:52;;;;;;;;;;;22.00;43.70;;;;;;5127478;27;1868233;-69
2023/01/11 02:53:38;;;;;;;;;;;21.80;44.00;;;;;;5174358;27;19937;-66
2023/01/11 02:56:06;;;;;;;;;;;21.70;44.20;;;;;;5174452;27;19969;-65
2023/01/11 02:58:34;;;;;;;;;;;21.50;44.40;;;;;;5193311;27;19933;-65
2023/01/11 03:00:59;;;;;;;;;;;21.50;44.60;;;;;;5174225;27;19951;-66
2023/01/11 03:03:28;;;;;;;;;;;21.40;44.70;;;;;;5174198;27;19926;-68
2023/01/11 03:05:57;;;;;;;;;;;21.40;44.90;;;;;;5192889;27;19918;-65
2023/01/11 03:08:33;;;;;;;;;;;21.40;44.90;;;;;;5192889;27;19918;-66
2023/01/11 03:11:05;;;;;;;;;;;21.40;44.90;;;;;;5174192;27;19918;-65
2023/01/11 03:13:50;;;;;;;;;;;21.50;44.90;;;;;;5174331;27;19919;-65
2023/01/11 03:16:20;;;;;;;;;;;21.50;44.70;;;;;;5173703;27;20369;-66
2023/01/11 03:21:46;;;;;;;;;;;21.70;44.50;;;;;;5089897;28;19945;-69
2023/01/11 03:24:19;;;;;;;;;;;21.80;44.20;;;;;;5088717;28;20368;-66
2023/01/11 03:37:40;;;;;;;;;;;22.00;43.90;;;;;;5089756;28;20409;-68
2023/01/11 03:43:19;;;;;;;;;;;21.90;43.90;;;;;;5110279;27;19918;-66
2023/01/11 03:45:35;;;;;;;;;;;21.90;44.00;;;;;;5109110;28;20022;-66
2023/01/11 03:48:02;;;;;;;;;;;21.80;44.20;;;;;;5109094;28;19924;-66
2023/01/11 03:50:29;;;;;;;;;;;21.70;44.40;;;;;;5108964;28;20391;-65
2023/01/11 03:52:57;;;;;;;;;;;21.60;44.60;;;;;;5109061;28;19927;-65
2023/01/11 03:55:25;;;;;;;;;;;21.50;44.70;;;;;;5108828;28;19965;-67
2023/01/11 03:57:52;;;;;;;;;;;21.50;44.90;;;;;;5109953;28;20255;-65
2023/01/11 04:00:18;;;;;;;;;;;21.50;44.90;;;;;;5108828;28;19943;-66
2023/01/11 04:02:44;;;;;;;;;;;21.50;44.90;;;;;;5109737;28;20340;-66
2023/01/11 04:05:10;;;;;;;;;;;21.50;45.00;;;;;;5110080;28;19920;-65
2023/01/11 04:07:35;;;;;;;;;;;21.50;45.00;;;;;;5108461;28;19919;-70
2023/01/11 04:10:01;;;;;;;;;;;21.50;45.00;;;;;;5108793;28;19931;-69
2023/01/11 04:12:27;;;;;;;;;;;21.40;45.10;;;;;;5108639;28;20280;-65
2023/01/11 04:14:52;;;;;;;;;;;21.40;45.10;;;;;;5109657;28;19926;-69
2023/01/11 04:17:18;;;;;;;;;;;21.40;45.10;;;;;;5108602;28;19924;-66
2023/01/11 04:19:43;;;;;;;;;;;21.40;45.10;;;;;;5109488;28;19920;-66
2023/01/11 04:22:09;;;;;;;;;;;21.50;45.20;;;;;;5109636;28;19924;-65
2023/01/11 04:24:34;;;;;;;;;;;21.40;45.20;;;;;;5109367;28;20405;-66
2023/01/11 04:27:00;;;;;;;;;;;21.50;45.20;;;;;;5108254;28;19927;-69
2023/01/11 04:29:25;;;;;;;;;;;21.50;45.10;;;;;;5109291;28;19920;-68
2023/01/11 04:31:51;;;;;;;;;;;21.50;45.00;;;;;;5108387;28;19931;-66
2023/01/11 04:34:16;;;;;;;;;;;21.60;45.10;;;;;;5108195;28;20375;-66
2023/01/11 04:36:42;;;;;;;;;;;21.60;45.20;;;;;;5108230;28;20371;-66
2023/01/11 04:39:09;;;;;;;;;;;21.50;45.00;;;;;;5109121;28;19923;-69
2023/01/11 04:44:21;;;;;;;;;;;21.50;45.00;;;;;;5107775;28;19920;-68
2023/01/11 04:46:47;;;;;;;;;;;21.60;45.00;;;;;;5107705;28;19984;-66
2023/01/11 04:49:12;;;;;;;;;;;21.60;45.00;;;;;;5107898;28;19920;-66
2023/01/11 04:51:38;;;;;;;;;;;21.60;45.00;;;;;;5109311;28;19958;-66
2023/01/11 04:54:03;;;;;;;;;;;21.60;45.00;;;;;;5094158;28;19920;-66
2023/01/11 04:56:29;;;;;;;;;;;21.60;45.00;;;;;;5094332;28;19943;-66
2023/01/11 04:58:55;;;;;;;;;;;21.60;45.00;;;;;;5095225;28;19920;-66
2023/01/11 05:01:20;;;;;;;;;;;21.60;45.00;;;;;;5093979;28;19996;-66
2023/01/11 05:03:46;;;;;;;;;;;21.70;45.10;;;;;;5095099;28;20330;-66
2023/01/11 05:06:12;;;;;;;;;;;21.60;45.10;;;;;;5077288;28;20399;-66
2023/01/11 05:08:37;;;;;;;;;;;21.60;45.10;;;;;;5093774;28;19920;-66
2023/01/11 05:11:04;;;;;;;;;;;21.60;45.10;;;;;;5094960;28;19920;-66
2023/01/11 05:13:45;;;;;;;;;;;21.60;45.20;;;;;;5094021;28;19926;-66
2023/01/11 05:18:51;;;;;;;;;;;21.50;45.10;;;;;;5126966;27;1884408;-66
2023/01/11 05:21:18;;;;;;;;;;;21.50;45.20;;;;;;5174720;27;19919;-66
2023/01/11 05:23:44;;;;;;;;;;;21.50;45.20;;;;;;5193263;27;19923;-66
2023/01/11 05:26:11;;;;;;;;;;;21.50;45.30;;;;;;5193113;27;19919;-66
2023/01/11 05:28:36;;;;;;;;;;;21.50;45.40;;;;;;5174618;27;20263;-66
2023/01/11 05:31:02;;;;;;;;;;;21.50;45.30;;;;;;5174413;27;19930;-66
2023/01/11 05:33:28;;;;;;;;;;;21.50;45.40;;;;;;5193066;27;19919;-66
2023/01/11 05:35:57;;;;;;;;;;;21.50;45.40;;;;;;5193091;27;19959;-66
2023/01/11 05:38:23;;;;;;;;;;;21.50;45.50;;;;;;5192977;27;20340;-66
2023/01/11 05:41:05;;;;;;;;;;;21.50;45.50;;;;;;5174060;27;19919;-66
2023/01/11 05:43:31;;;;;;;;;;;21.50;45.50;;;;;;5192765;27;19925;-66
2023/01/11 05:45:57;;;;;;;;;;;21.50;45.50;;;;;;5173977;27;19923;-66
2023/01/11 05:48:23;;;;;;;;;;;21.50;45.50;;;;;;5174272;27;19918;-67
2023/01/11 05:50:50;;;;;;;;;;;21.50;45.50;;;;;;5173869;27;20018;-66
2023/01/11 05:53:15;;;;;;;;;;;21.50;45.50;;;;;;5173915;27;19918;-66
2023/01/11 05:55:50;;;;;;;;;;;21.50;45.50;;;;;;5173753;27;19967;-70
2023/01/11 05:58:16;;;;;;;;;;;21.50;45.60;;;;;;5173693;27;19929;-66
2023/01/11 06:00:41;;;;;;;;;;;21.40;45.60;;;;;;5192625;27;20344;-66
2023/01/11 06:03:07;;;;;;;;;;;21.50;45.60;;;;;;5192621;27;19918;-66
2023/01/11 06:05:33;;;;;;;;;;;21.40;45.60;;;;;;5173601;27;19922;-66
2023/01/11 06:07:58;;;;;;;;;;;21.50;45.60;;;;;;5192492;27;19919;-66
2023/01/11 06:10:24;;;;;;;;;;;21.40;45.60;;;;;;5192358;27;19919;-66
2023/01/11 06:13:25;;;;;;;;;;;21.50;45.60;;;;;;5173327;27;19919;-66
2023/01/11 06:15:36;;;;;;;;;;;21.40;45.60;;;;;;5173475;27;19922;-66
2023/01/11 06:18:02;;;;;;;;;;;21.40;45.70;;;;;;5191700;27;20405;-70
2023/01/11 06:20:27;;;;;;;;;;;21.40;45.70;;;;;;5192179;27;20013;-66
2023/01/11 06:22:53;;;;;;;;;;;21.50;45.70;;;;;;5173426;27;20010;-66
2023/01/11 06:25:18;;;;;;;;;;;21.40;45.70;;;;;;5192068;27;20387;-69
2023/01/11 06:27:44;;;;;;;;;;;21.50;45.70;;;;;;5173124;27;19929;-66
2023/01/11 06:30:10;;;;;;;;;;;21.50;45.60;;;;;;5166857;27;19958;-66
2023/01/11 06:32:35;;;;;;;;;;;21.50;46.40;;;;;;5138626;27;20260;-66
2023/01/11 06:35:01;;;;;;;;;;;21.50;45.70;;;;;;5157058;27;20273;-70
2023/01/11 06:37:26;;;;;;;;;;;21.50;46.40;;;;;;5156691;27;19923;-66
2023/01/11 06:39:52;;;;;;;;;;;21.50;45.60;;;;;;5137195;27;20141;-69
2023/01/11 06:42:17;;;;;;;;;;;21.50;45.60;;;;;;5160511;27;19919;-66
2023/01/11 06:44:43;;;;;;;;;;;21.50;45.60;;;;;;5134739;27;20006;-66
2023/01/11 06:47:08;;;;;;;;;;;21.50;45.60;;;;;;5157761;27;20013;-66
2023/01/11 06:49:34;;;;;;;;;;;21.50;45.70;;;;;;5162571;27;20315;-67
2023/01/11 06:51:59;;;;;;;;;;;21.50;45.70;;;;;;5135181;27;19922;-66
2023/01/11 06:54:25;;;;;;;;;;;21.40;45.60;;;;;;5132615;27;19919;-65
2023/01/11 06:56:50;;;;;;;;;;;21.50;45.70;;;;;;5118226;27;19937;-68
2023/01/11 06:59:16;;;;;;;;;;;21.50;45.90;;;;;;5146558;27;19958;-66
2023/01/11 07:01:41;;;;;;;;;;;21.50;46.20;;;;;;5158086;27;20013;-65
2023/01/11 07:04:07;;;;;;;;;;;21.50;46.30;;;;;;5154937;27;20276;-65
2023/01/11 07:06:33;;;;;;;;;;;21.50;46.50;;;;;;5150560;27;20599;-67
2023/01/11 07:08:59;;;;;;;;;;;21.50;46.60;;;;;;5135415;27;20668;-65
2023/01/11 07:11:24;;;;;;;;;;;21.40;46.70;;;;;;5117719;27;19934;-65
2023/01/11 07:13:50;;;;;;;;;;;21.40;46.90;;;;;;5147895;27;20409;-65
2023/01/11 07:16:16;;;;;;;;;;;21.40;47.00;;;;;;5148106;27;20331;-65
2023/01/11 07:18:41;;;;;;;;;;;21.40;47.20;;;;;;5145681;27;20498;-65
2023/01/11 07:21:07;;;;;;;;;;;21.50;47.20;;;;;;5133377;27;20049;-64
2023/01/11 07:23:33;;;;;;;;;;;21.40;47.30;;;;;;5141632;27;20614;-65
2023/01/11 07:25:58;;;;;;;;;;;21.40;47.50;;;;;;5134126;27;19923;-66
2023/01/11 07:28:27;;;;;;;;;;;21.50;47.80;;;;;;5135050;27;20293;-66
2023/01/11 07:30:52;;;;;;;;;;;21.50;48.10;;;;;;5153056;27;20380;-66
2023/01/11 07:33:18;;;;;;;;;;;21.50;47.90;;;;;;5134279;27;19923;-66
2023/01/11 07:35:43;;;;;;;;;;;21.50;48.00;;;;;;5153879;27;19954;-66
2023/01/11 07:38:10;;;;;;;;;;;21.40;48.20;;;;;;5135347;27;20109;-67
2023/01/11 07:40:36;;;;;;;;;;;21.40;48.20;;;;;;5131716;27;19923;-67
2023/01/11 07:43:32;;;;;;;;;;;21.40;48.30;;;;;;5152036;27;19976;-66
2023/01/11 07:45:48;;;;;;;;;;;21.50;48.30;;;;;;5151200;27;19934;-71
2023/01/11 07:48:15;;;;;;;;;;;21.60;48.10;;;;;;5136211;27;19923;-65
2023/01/11 07:50:41;;;;;;;;;;;21.60;47.90;;;;;;5138895;27;19919;-66
2023/01/11 07:53:07;;;;;;;;;;;21.70;47.80;;;;;;5135107;27;19923;-70
2023/01/11 07:55:32;;;;;;;;;;;21.80;47.60;;;;;;5139661;27;19927;-68
2023/01/11 07:57:58;;;;;;;;;;;21.90;47.40;;;;;;5150722;27;19923;-66
2023/01/11 08:00:24;;;;;;;;;;;22.00;47.30;;;;;;5133950;27;19929;-67
2023/01/11 08:02:51;;;;;;;;;;;22.00;47.20;;;;;;5136122;27;19926;-71
2023/01/11 08:05:17;;;;;;;;;;;22.00;47.10;;;;;;5139350;27;20278;-67
2023/01/11 08:07:43;;;;;;;;;;;22.00;47.00;;;;;;5136010;27;19983;-66
2023/01/11 08:10:09;;;;;;;;;;;21.90;47.10;;;;;;5153480;27;19930;-67
2023/01/11 08:15:26;;;;;;;;;;;21.80;47.60;;;;;;5138877;27;19968;-66
2023/01/11 08:17:51;;;;;;;;;;;21.70;47.60;;;;;;5137306;27;20416;-67
2023/01/11 08:20:17;;;;;;;;;;;21.70;47.70;;;;;;5132112;27;19970;-67
2023/01/11 08:22:42;;;;;;;;;;;21.60;48.00;;;;;;5132076;27;19926;-66
2023/01/11 08:25:08;;;;;;;;;;;21.40;48.30;;;;;;5135427;27;20367;-67
2023/01/11 08:27:34;;;;;;;;;;;21.20;48.60;;;;;;5152562;27;20011;-67
2023/01/11 08:29:59;;;;;;;;;;;21.10;49.00;;;;;;5138768;27;19926;-67
2023/01/11 08:32:26;;;;;;;;;;;21.10;49.40;;;;;;5153850;27;20482;-67
2023/01/11 08:34:52;;;;;;;;;;;20.90;49.50;;;;;;5138368;27;19951;-66
2023/01/11 08:37:17;;;;;;;;;;;20.90;49.60;;;;;;5152443;27;20014;-67
2023/01/11 08:39:43;;;;;;;;;;;21.00;49.70;;;;;;5152150;27;19938;-66
2023/01/11 08:42:08;;;;;;;;;;;21.00;49.60;;;;;;5135067;27;19929;-66
2023/01/11 08:44:34;;;;;;;;;;;21.10;49.50;;;;;;5129605;27;20278;-67
2023/01/11 08:47:00;;;;;;;;;;;21.10;49.40;;;;;;5131947;27;20461;-66
2023/01/11 08:49:25;;;;;;;;;;;21.20;49.30;;;;;;5152300;27;20250;-67
2023/01/11 08:51:51;;;;;;;;;;;21.40;49.00;;;;;;5135424;27;20617;-66
2023/01/11 08:54:16;;;;;;;;;;;21.60;48.50;;;;;;5135729;27;19919;-69
2023/01/11 08:56:42;;;;;;;;;;;21.70;48.20;;;;;;5140708;27;19934;-65
2023/01/11 08:59:08;;;;;;;;;;;21.80;48.00;;;;;;5153981;27;19919;-65
2023/01/11 09:01:34;;;;;;;;;;;21.70;48.00;;;;;;5154072;27;19922;-66
2023/01/11 09:03:59;;;;;;;;;;;21.60;48.30;;;;;;5135376;27;20050;-66
2023/01/11 09:06:25;;;;;;;;;;;21.50;48.50;;;;;;5139469;27;19923;-67
2023/01/11 09:08:50;;;;;;;;;;;21.60;48.60;;;;;;5152500;27;19923;-66
2023/01/11 09:14:02;;;;;;;;;;;21.50;48.70;;;;;;5149961;27;20263;-66
2023/01/11 09:16:27;;;;;;;;;;;21.60;48.60;;;;;;5139224;27;19930;-66
2023/01/11 09:18:54;;;;;;;;;;;21.60;48.40;;;;;;5135982;27;20025;-66
2023/01/11 09:21:20;;;;;;;;;;;21.70;48.40;;;;;;5139864;27;20317;-66
2023/01/11 09:23:46;;;;;;;;;;;21.60;48.30;;;;;;5154246;27;19923;-66
2023/01/11 09:26:11;;;;;;;;;;;21.60;48.40;;;;;;5154114;27;19918;-66
2023/01/11 09:28:37;;;;;;;;;;;21.50;48.60;;;;;;5140012;27;20648;-67
2023/01/11 09:31:03;;;;;;;;;;;21.50;48.60;;;;;;5135998;27;20861;-67
2023/01/11 09:33:29;;;;;;;;;;;21.50;48.50;;;;;;5131222;27;19927;-66
2023/01/11 09:35:57;;;;;;;;;;;21.50;48.50;;;;;;5144975;27;20046;-65
2023/01/11 09:38:28;;;;;;;;;;;21.50;48.40;;;;;;5133332;27;19931;-65
2023/01/11 09:41:16;;;;;;;;;;;21.40;48.60;;;;;;5149603;27;20296;-66
2023/01/11 09:43:49;;;;;;;;;;;21.40;48.80;;;;;;5151352;27;19919;-66
2023/01/11 09:46:16;;;;;;;;;;;21.30;49.10;;;;;;5152650;27;19926;-69
2023/01/11 09:48:45;;;;;;;;;;;21.30;49.50;;;;;;5136106;27;19954;-64
2023/01/11 09:51:16;;;;;;;;;;;21.30;49.30;;;;;;5148164;27;19927;-65
2023/01/11 09:53:48;;;;;;;;;;;21.30;49.30;;;;;;5153168;27;19926;-66
2023/01/11 09:56:15;;;;;;;;;;;21.30;49.30;;;;;;5151284;27;19923;-66
2023/01/11 09:58:52;;;;;;;;;;;21.30;49.30;;;;;;5133067;27;19927;-66
2023/01/11 10:01:20;;;;;;;;;;;21.30;49.30;;;;;;5132878;27;20396;-65
2023/01/11 10:06:50;;;;;;;;;;;21.30;49.10;;;;;;5079470;27;19920;-64
2023/01/11 10:09:35;;;;;;;;;;;21.40;49.10;;;;;;5072786;28;20132;-66
2023/01/11 10:12:22;;;;;;;;;;;21.40;49.10;;;;;;5056571;28;20018;-66
2023/01/11 10:18:03;;;;;;;;;;;21.50;49.00;;;;;;5063940;28;19953;-65
2023/01/11 10:20:34;;;;;;;;;;;21.50;48.80;;;;;;5047991;28;19929;-65
2023/01/11 10:23:04;;;;;;;;;;;21.50;48.80;;;;;;5039808;28;20338;-64
2023/01/11 10:25:40;;;;;;;;;;;21.60;48.70;;;;;;5034051;28;19929;-65
2023/01/11 10:28:12;;;;;;;;;;;21.60;48.70;;;;;;5031565;28;20022;-66
2023/01/11 10:31:00;;;;;;;;;;;21.60;49.40;;;;;;5044533;28;20134;-66
2023/01/11 10:33:45;;;;;;;;;;;21.60;48.60;;;;;;5038813;28;19925;-65
2023/01/11 10:41:55;;;;;;;;;;;21.30;49.40;;;;;;5086433;27;19949;-65
2023/01/11 10:47:15;;;;;;;;;;;21.30;49.80;;;;;;5085876;27;19928;-64
2023/01/11 10:49:51;;;;;;;;;;;21.40;49.70;;;;;;5070271;28;19932;-64
2023/01/11 10:52:23;;;;;;;;;;;21.50;49.80;;;;;;5038537;28;19936;-66
2023/01/11 10:54:53;;;;;;;;;;;21.50;49.80;;;;;;5058791;28;19955;-67
2023/01/11 10:57:24;;;;;;;;;;;21.50;50.00;;;;;;5053293;28;20233;-66
2023/01/11 11:00:10;;;;;;;;;;;21.50;50.20;;;;;;5074299;28;19924;-65
2023/01/11 11:02:46;;;;;;;;;;;21.50;50.20;;;;;;5046946;28;19929;-64
2023/01/11 11:05:32;;;;;;;;;;;21.50;50.30;;;;;;5046301;28;20499;-70
2023/01/11 11:08:03;;;;;;;;;;;21.50;50.40;;;;;;5053078;28;19939;-66
2023/01/11 11:10:49;;;;;;;;;;;21.40;50.40;;;;;;5051979;28;19932;-65
2023/01/11 11:16:00;;;;;;;;;;;21.40;50.80;;;;;;5089869;27;20382;-64
2023/01/11 11:18:26;;;;;;;;;;;21.30;50.60;;;;;;5074163;28;20453;-64
2023/01/11 11:20:51;;;;;;;;;;;21.40;50.70;;;;;;5066461;28;19935;-71
2023/01/11 11:23:20;;;;;;;;;;;21.40;50.60;;;;;;5064139;28;20008;-65
2023/01/11 11:25:48;;;;;;;;;;;21.40;50.60;;;;;;5079744;28;19920;-65
2023/01/11 11:31:02;;;;;;;;;;;21.40;50.60;;;;;;5062974;27;19925;-65
2023/01/11 11:33:32;;;;;;;;;;;21.40;50.60;;;;;;5042592;28;19936;-63
2023/01/11 11:36:00;;;;;;;;;;;21.50;50.80;;;;;;5054101;28;20573;-68
2023/01/11 11:38:30;;;;;;;;;;;21.50;50.80;;;;;;5049915;28;20669;-63
2023/01/11 11:43:45;;;;;;;;;;;21.20;50.50;;;;;;5055492;28;19917;-69
2023/01/11 11:49:09;;;;;;;;;;;20.90;50.50;;;;;;5086346;27;1873818;-64
2023/01/11 11:51:35;;;;;;;;;;;20.80;50.60;;;;;;5122889;27;19930;-63
2023/01/11 11:54:01;;;;;;;;;;;20.90;50.80;;;;;;5106021;27;20433;-63
2023/01/11 11:56:28;;;;;;;;;;;20.90;50.60;;;;;;5111053;27;19972;-63
2023/01/11 11:58:54;;;;;;;;;;;21.00;50.30;;;;;;5116406;27;19926;-65
2023/01/11 12:04:12;;;;;;;;;;;21.20;49.80;;;;;;5084909;27;19934;-65
2023/01/11 12:06:38;;;;;;;;;;;21.20;49.30;;;;;;5070249;28;19977;-67
2023/01/11 12:09:09;;;;;;;;;;;21.10;49.30;;;;;;5080147;28;19932;-66
2023/01/11 12:11:36;;;;;;;;;;;21.30;49.40;;;;;;5102523;27;19946;-66
2023/01/11 12:16:44;;;;;;;;;;;21.80;48.90;;;;;;5079989;27;20180;-67
2023/01/11 12:19:30;;;;;;;;;;;22.30;47.90;;;;;;5071691;28;19920;-65
2023/01/11 12:22:15;;;;;;;;;;;22.90;46.90;;;;;;5074433;28;19928;-66
2023/01/11 12:24:41;;;;;;;;;;;23.40;45.90;;;;;;5074122;28;19925;-67
2023/01/11 12:27:14;;;;;;;;;;;23.80;44.90;;;;;;5055551;28;19927;-65
2023/01/11 12:40:44;;;;;;;;;;;24.30;42.70;;;;;;5068021;27;1866008;-65
2023/01/11 12:43:19;;;;;;;;;;;24.50;42.50;;;;;;5110397;27;20694;-65
2023/01/11 12:51:17;;;;;;;;;;;24.70;40.70;;;;;;5100510;27;1866095;-65
2023/01/11 12:53:50;;;;;;;;;;;24.70;40.80;;;;;;5133050;27;20043;-65
2023/01/11 12:59:31;;;;;;;;;;;24.50;41.10;;;;;;5086568;27;20291;-66
2023/01/11 13:02:03;;;;;;;;;;;24.50;41.30;;;;;;5092107;28;19960;-65
2023/01/11 13:10:12;;;;;;;;;;;25.00;41.10;;;;;;5091066;27;19944;-65
2023/01/11 13:12:50;;;;;;;;;;;25.20;40.80;;;;;;5112231;27;19947;-71
2023/01/11 13:15:40;;;;;;;;;;;25.30;40.70;;;;;;5082051;28;20576;-65
2023/01/11 13:18:12;;;;;;;;;;;25.40;40.60;;;;;;5078142;28;20419;-65
2023/01/11 13:23:39;;;;;;;;;;;25.60;40.40;;;;;;5103677;22;19924;-73
2023/01/11 13:26:16;;;;;;;;;;;25.60;40.50;;;;;;5081977;28;19971;-67
2023/01/11 13:28:42;;;;;;;;;;;25.60;40.30;;;;;;5073942;28;19925;-69
2023/01/11 13:31:10;;;;;;;;;;;25.60;40.20;;;;;;5088384;28;20299;-69
2023/01/11 13:33:38;;;;;;;;;;;25.70;40.20;;;;;;5076560;28;20517;-68
2023/01/11 13:38:47;;;;;;;;;;;25.90;40.00;;;;;;5086960;27;20413;-72
2023/01/11 13:41:16;;;;;;;;;;;25.90;40.00;;;;;;5082347;28;20039;-72
2023/01/11 13:51:56;;;;;;;;;;;25.90;40.40;;;;;;5106685;27;1869199;-68
2023/01/11 13:57:03;;;;;;;;;;;26.00;40.60;;;;;;5087110;27;1867396;-72
2023/01/11 13:59:33;;;;;;;;;;;26.00;40.40;;;;;;5118968;27;19942;-67
2023/01/11 14:04:45;;;;;;;;;;;26.00;41.00;;;;;;5079796;27;19923;-73
2023/01/11 14:07:31;;;;;;;;;;;25.90;40.20;;;;;;5104072;28;19928;-66
2023/01/11 14:12:56;;;;;;;;;;;25.90;40.20;;;;;;5088697;27;20409;-67
2023/01/11 14:23:36;;;;;;;;;;;24.90;40.60;;;;;;5089616;27;20355;-67
2023/01/11 14:26:13;;;;;;;;;;;24.60;41.10;;;;;;5110803;28;19935;-66
2023/01/11 14:28:58;;;;;;;;;;;24.30;41.40;;;;;;5078342;28;19967;-68
2023/01/11 14:40:02;;;;;;;;;;;23.20;42.50;;;;;;5064426;28;20406;-76
2023/01/11 14:45:15;;;;;;;;;;;22.60;43.50;;;;;;5082510;27;19922;-69
2023/01/11 14:48:01;;;;;;;;;;;22.30;43.80;;;;;;5058221;28;20317;-73
2023/01/11 14:50:33;;;;;;;;;;;22.10;44.20;;;;;;5094744;28;20284;-69
2023/01/11 14:53:00;;;;;;;;;;;21.80;44.60;;;;;;5063791;28;19929;-68
2023/01/11 14:55:28;;;;;;;;;;;21.70;45.00;;;;;;5064192;28;19920;-69
2023/01/11 15:05:56;;;;;;;;;;;21.20;45.80;;;;;;5085368;27;19927;-67
2023/01/11 15:08:23;;;;;;;;;;;21.10;46.20;;;;;;5073857;28;19974;-69
2023/01/11 15:13:43;;;;;;;;;;;20.80;46.60;;;;;;5074484;27;19920;-64
2023/01/11 15:19:06;;;;;;;;;;;20.70;47.00;;;;;;5066276;28;19928;-66
2023/01/11 15:21:33;;;;;;;;;;;20.60;47.10;;;;;;5083924;28;19943;-66
2023/01/11 15:23:59;;;;;;;;;;;20.60;47.30;;;;;;5074021;28;19924;-66
2023/01/11 15:26:25;;;;;;;;;;;20.50;47.30;;;;;;5106947;28;19924;-66
2023/01/11 15:39:59;;;;;;;;;;;20.20;47.90;;;;;;5075977;27;19950;-73
2023/01/11 15:42:45;;;;;;;;;;;20.20;48.00;;;;;;5063063;28;19957;-73
2023/01/11 15:53:10;;;;;;;;;;;20.00;48.40;;;;;;5042077;26;19925;-66
2023/01/11 15:58:38;;;;;;;;;;;19.90;48.60;;;;;;5094934;27;19919;-67
2023/01/11 16:09:36;;;;;;;;;;;19.70;48.80;;;;;;5109595;27;19940;-71
2023/01/11 16:12:21;;;;;;;;;;;19.70;48.90;;;;;;5108288;28;20280;-71
2023/01/11 16:14:59;;;;;;;;;;;19.70;48.90;;;;;;5108567;28;19920;-74
2023/01/11 16:17:25;;;;;;;;;;;19.60;48.90;;;;;;5108805;28;19920;-67
2023/01/11 16:19:55;;;;;;;;;;;19.60;49.00;;;;;;5109297;28;19973;-73
2023/01/11 16:22:24;;;;;;;;;;;19.60;49.00;;;;;;5102389;28;19928;-74
2023/01/11 16:24:53;;;;;;;;;;;19.50;49.00;;;;;;5095480;28;19973;-73
2023/01/11 16:27:27;;;;;;;;;;;19.50;49.10;;;;;;5097510;28;19932;-74
2023/01/11 16:29:53;;;;;;;;;;;19.60;49.20;;;;;;5095566;28;19927;-73
2023/01/11 16:45:20;;;;;;;;;;;19.40;49.20;;;;;;5011121;27;3424067;-73
2023/01/11 16:48:09;;;;;;;;;;;19.40;49.30;;;;;;5128683;28;19924;-74
2023/01/11 16:50:34;;;;;;;;;;;19.30;49.30;;;;;;5130401;28;19919;-74
2023/01/11 16:53:02;;;;;;;;;;;19.30;49.30;;;;;;5130341;27;20498;-74
2023/01/11 16:58:27;;;;;;;;;;;19.20;49.30;;;;;;5137507;27;1866688;-74
2023/01/11 17:00:56;;;;;;;;;;;19.20;49.30;;;;;;5174439;27;20019;-75
2023/01/11 17:03:23;;;;;;;;;;;19.20;50.10;;;;;;5193508;27;20017;-75
2023/01/11 17:05:59;;;;;;;;;;;19.20;49.40;;;;;;5174734;27;20279;-74
2023/01/11 17:08:27;;;;;;;;;;;19.20;49.50;;;;;;5174162;27;19925;-74
2023/01/11 17:10:54;;;;;;;;;;;19.10;49.50;;;;;;5174220;27;20372;-74
2023/01/11 17:13:54;;;;;;;;;;;19.20;49.50;;;;;;5185516;27;19919;-72
2023/01/11 17:16:22;;;;;;;;;;;19.10;49.50;;;;;;5163952;27;19923;-74
2023/01/11 17:18:48;;;;;;;;;;;19.10;49.50;;;;;;5164541;27;19974;-72
2023/01/11 17:21:22;;;;;;;;;;;19.10;49.60;;;;;;5172023;27;20004;-71
2023/01/11 17:23:48;;;;;;;;;;;19.10;49.60;;;;;;5163317;27;19971;-72
2023/01/11 17:26:16;;;;;;;;;;;19.00;49.60;;;;;;5172640;27;19927;-73
2023/01/11 17:28:43;;;;;;;;;;;19.00;49.60;;;;;;5192452;27;19964;-75
2023/01/11 17:31:13;;;;;;;;;;;19.00;49.70;;;;;;5173683;27;19971;-73
2023/01/11 17:33:40;;;;;;;;;;;19.00;49.70;;;;;;5156867;27;19922;-77
2023/01/11 17:36:05;;;;;;;;;;;19.00;50.00;;;;;;5153091;27;20323;-76
2023/01/11 17:38:31;;;;;;;;;;;19.00;50.30;;;;;;5153201;27;19919;-69
2023/01/11 17:40:59;;;;;;;;;;;19.00;50.80;;;;;;5187580;27;19925;-68
2023/01/11 17:46:16;;;;;;;;;;;19.00;53.90;;;;;;5167815;27;19918;-69
2023/01/11 17:48:50;;;;;;;;;;;18.90;53.30;;;;;;5161257;27;19919;-72
2023/01/11 17:51:22;;;;;;;;;;;18.90;52.80;;;;;;5171214;27;19919;-72
2023/01/11 17:53:49;;;;;;;;;;;18.90;52.40;;;;;;5171292;27;19919;-71
2023/01/11 17:56:34;;;;;;;;;;;18.90;52.10;;;;;;5152636;27;19997;-72